• Join FlightAware (Why Join?)
  • Login
  • US Flag 
06:05PM EDT


 

Airport Tracker/Info


-or-


 

Live Flight TrackerFlight Track Log ✈ VOZ837 ✈ 08-May-2013 ✈ YMML / MEL - YSSY / SYD

Flight Track Log - Related Links

Times and Time Zones

All times are in EDT time to prevent confusion due to time zone crossing. See the VOZ837 flight status page for this flight to view local times or setup timezone preferences in your user account.

Time Position Orientation Groundspeed Altitude Reporting Facility
EDT Latitude Longitude Course Direction KTS MPH feet Rate Location/Type
09:07PM -37.6540 144.8350 352° North 147 169 1,200  Level FlightAware
09:07PM -37.6370 144.8320 352° North 167 192 1,800 1,320 Climbing FlightAware
09:07PM -37.6250 144.8290 349° North 188 216 2,100 1,020 Climbing FlightAware
09:08PM -37.6000 144.8250 353° North 225 259 2,500 2,100 Climbing FlightAware
09:09PM -37.5510 144.8473 353° North 255 293 4,500 2,400 Climbing Aus ATC (RADAR)
09:09PM -37.5030 144.8760 353° North 274 315 6,100 2,700 Climbing FlightAware
09:10PM -37.4655 144.8988 353° North 279 321 7,900 2,760 Climbing Aus ATC (RADAR)
09:11PM -37.3860 145.0066 47° Northeast 317 365 11,300 2,580 Climbing Aus ATC (RADAR)
09:12PM -37.3677 145.0386 54° Northeast 333 383 12,400 3,300 Climbing Aus ATC (RADAR)
09:12PM -37.3308 145.1035 54° Northeast 345 397 14,600 3,120 Climbing Aus ATC (RADAR)
09:13PM -37.2845 145.1855 55° Northeast 353 406 17,100 3,000 Climbing Aus ATC (RADAR)
09:14PM -37.2457 145.2536 54° Northeast 360 414 19,100 2,820 Climbing Aus ATC (RADAR)
09:14PM -37.2062 145.3223 54° Northeast 367 422 20,900 2,460 Climbing Aus ATC (RADAR)
09:15PM -37.1760 145.3754 55° Northeast 374 430 22,000 1,980 Climbing Aus ATC (RADAR)
09:16PM -37.0916 145.5229 54° Northeast 401 461 24,600 2,040 Climbing Aus ATC (RADAR)
09:16PM -37.0753 145.5518 55° Northeast 406 467 25,300 2,280 Climbing Aus ATC (RADAR)
09:17PM -37.0364 145.6185 54° Northeast 408 470 26,500 1,560 Climbing Aus ATC (RADAR)
09:18PM -36.9839 145.7094 54° Northeast 432 497 27,400 1,380 Climbing Aus ATC (RADAR)
09:18PM -36.9662 145.7401 54° Northeast 435 501 27,900 600 Climbing Aus ATC (RADAR)
09:18PM -36.9560 145.7580 54° Northeast 441 507 27,700 1,500 Descending FlightAware
09:19PM -36.9181 145.8231 54° Northeast 444 511 28,900 1,620 Climbing Aus ATC (RADAR)
09:19PM -36.8890 145.8740 54° Northeast 449 517 29,200 1,500 Climbing FlightAware
09:20PM -36.8505 145.9402 54° Northeast 457 526 30,300 1,320 Climbing Aus ATC (RADAR)
09:20PM -36.8380 145.9620 54° Northeast 463 533 30,100 1,320 Descending FlightAware
09:20PM -36.7995 146.0266 54° Northeast 465 535 31,200 1,320 Climbing Aus ATC (RADAR)
09:21PM -36.7840 146.0540 54° Northeast 471 542 31,100 780 Descending FlightAware
09:21PM -36.7290 146.1480 54° Northeast 473 544 32,000 1,920 Climbing FlightAware
09:22PM -36.7024 146.1917 54° Northeast 475 547 32,900 2,520 Climbing Aus ATC (RADAR)
09:22PM -36.6767 146.2363 54° Northeast 476 548 33,500 780 Climbing Aus ATC (RADAR)
09:22PM -36.6600 146.2660 54° Northeast 470 541 33,500 1,080 Level FlightAware
09:23PM -36.5960 146.3750 54° Northeast 470 541 34,700 1,560 Climbing FlightAware
09:24PM -36.5480 146.4580 54° Northeast 471 542 35,600 1,380 Climbing FlightAware
09:24PM -36.4890 146.5560 53° Northeast 465 535 36,700 1,860 Climbing FlightAware
09:25PM -36.4395 146.6381 53° Northeast 460 529 38,100 1,500 Climbing Aus ATC (RADAR)
09:25PM -36.4380 146.6420 53° Northeast 458 527 37,700 -120 Descending FlightAware
09:26PM -36.3810 146.7390 54° Northeast 468 539 38,000 900 Climbing FlightAware
09:26PM -36.3444 146.7990 54° Northeast 466 536 38,800 900 Climbing Aus ATC (RADAR)
09:26PM -36.3320 146.8210 54° Northeast 465 535 38,600 1,200 Descending FlightAware
09:27PM -36.3064 146.8633 54° Northeast 463 533 39,400 1,320 Climbing Aus ATC (RADAR)
09:27PM -36.2804 146.9051 52° Northeast 459 528 39,400 -960 Level Aus ATC (RADAR)
09:27PM -36.2790 146.9100 52° Northeast 465 535 39,000 120 Descending FlightAware
09:28PM -36.2359 146.9799 52° Northeast 460 529 39,500  Climbing Aus ATC (RADAR)
09:28PM -36.2230 147.0040 52° Northeast 464 534 39,000 -180 Descending FlightAware
09:28PM -36.1784 147.0754 52° Northeast 459 528 39,400  Climbing Aus ATC (RADAR)
09:29PM -36.1700 147.0910 52° Northeast 463 533 39,000 120 Descending FlightAware
09:29PM -36.1337 147.1497 52° Northeast 460 529 39,500  Climbing Aus ATC (RADAR)
09:29PM -36.1190 147.1760 52° Northeast 464 534 39,000  Descending FlightAware
09:30PM -36.0693 147.2556 52° Northeast 460 529 39,500  Climbing Aus ATC (RADAR)
09:30PM -36.0670 147.2610 52° Northeast 465 535 39,000  Descending FlightAware
09:30PM -36.0376 147.3092 52° Northeast 461 531 39,500  Climbing Aus ATC (RADAR)
09:31PM -36.0100 147.3550 52° Northeast 465 535 39,000 -480 Descending FlightAware
09:31PM -35.9530 147.4500 53° Northeast 466 536 39,000 360 Level FlightAware
09:32PM -35.9020 147.5320 53° Northeast 461 531 39,500  Climbing Aus ATC (RADAR)
09:32PM -35.8980 147.5400 53° Northeast 468 539 39,000  Descending FlightAware
09:33PM -35.8564 147.6067 53° Northeast 466 536 39,500  Climbing Aus ATC (RADAR)
09:33PM -35.8510 147.6170 53° Northeast 465 535 39,000  Descending FlightAware
09:33PM -35.8108 147.6812 53° Northeast 466 536 39,500 360 Climbing Aus ATC (RADAR)
09:34PM -35.7583 147.7666 53° Northeast 466 536 39,400 -600 Descending Aus ATC (RADAR)
09:34PM -35.7520 147.7790 53° Northeast 468 539 39,000  Descending FlightAware
09:35PM -35.6990 147.8634 53° Northeast 471 542 39,400  Climbing Aus ATC (RADAR)
09:35PM -35.6990 147.8650 53° Northeast 470 541 39,000  Descending FlightAware
09:35PM -35.6661 147.9172 53° Northeast 471 542 39,400  Climbing Aus ATC (RADAR)
09:35PM -35.6460 147.9510 53° Northeast 475 547 39,000 -420 Descending FlightAware
09:36PM -35.5850 148.0490 53° Northeast 476 548 39,000  Level FlightAware
09:37PM -35.5330 148.1340 53° Northeast 477 549 39,000 300 Level FlightAware
09:37PM -35.4866 148.2072 53° Northeast 473 544 39,400  Climbing Aus ATC (RADAR)
09:37PM -35.4720 148.2320 53° Northeast 476 548 39,000  Descending FlightAware
09:38PM -35.4400 148.2824 53° Northeast 471 542 39,400  Climbing Aus ATC (RADAR)
09:38PM -35.4190 148.3170 53° Northeast 476 548 39,000 120 Descending FlightAware
09:39PM -35.3802 148.3785 53° Northeast 470 541 39,500  Climbing Aus ATC (RADAR)
09:39PM -35.3660 148.4020 53° Northeast 474 545 39,000 -180 Descending FlightAware
09:39PM -35.3272 148.4638 53° Northeast 469 540 39,400  Climbing Aus ATC (RADAR)
09:40PM -35.3060 148.4980 53° Northeast 473 544 39,000 120 Descending FlightAware
09:40PM -35.2676 148.5593 53° Northeast 468 539 39,500  Climbing Aus ATC (RADAR)
09:40PM -35.2520 148.5840 53° Northeast 472 543 39,000 -540 Descending FlightAware
09:41PM -35.1920 148.6790 52° Northeast 471 542 39,000  Level FlightAware
09:42PM -35.1390 148.7640 53° Northeast 464 534 39,000 480 Level FlightAware
09:42PM -35.1086 148.8114 53° Northeast 464 534 39,500  Climbing Aus ATC (RADAR)
09:42PM -35.0870 148.8450 53° Northeast 462 532 39,000 -480 Descending FlightAware
09:43PM -35.0260 148.9420 52° Northeast 462 532 39,000  Level FlightAware
09:44PM -34.9750 149.0230 52° Northeast 460 529 39,000  Level FlightAware
09:44PM -34.9210 149.1080 52° Northeast 460 529 39,000 -1,200 Level FlightAware
09:45PM -34.8620 149.1990 52° Northeast 474 545 37,300 -2,340 Descending FlightAware
09:46PM -34.8172 149.2700 52° Northeast 466 536 36,200 -2,700 Descending Aus ATC (RADAR)
09:46PM -34.8060 149.2870 52° Northeast 475 547 35,500 -2,640 Descending FlightAware
09:47PM -34.7480 149.3780 52° Northeast 464 534 33,700 -2,280 Descending FlightAware
09:47PM -34.7072 149.4647 52° Northeast 452 520 32,600 -2,400 Descending Aus ATC (RADAR)
09:47PM -34.7100 149.4600 52° Northeast 458 527 32,300 -2,400 Descending FlightAware
09:48PM -34.6679 149.5556 52° Northeast 445 512 31,000 -2,400 Descending Aus ATC (RADAR)
09:48PM -34.6600 149.5730 52° Northeast 450 518 30,300 -1,980 Descending FlightAware
09:49PM -34.6250 149.6542 52° Northeast 428 493 29,500 -1,980 Descending Aus ATC (RADAR)
09:49PM -34.6250 149.6540 52° Northeast 432 497 29,000 -2,520 Descending FlightAware
09:49PM -34.6016 149.7076 52° Northeast 421 484 28,500 -2,280 Descending Aus ATC (RADAR)
09:49PM -34.5850 149.7440 52° Northeast 421 484 27,500 -2,460 Descending FlightAware
09:50PM -34.5430 149.8410 62° Northeast 410 472 25,800 -1,920 Descending FlightAware
09:50PM -34.5244 149.8825 62° Northeast 399 459 25,500 -2,100 Descending Aus ATC (RADAR)
09:51PM -34.5070 149.9210 62° Northeast 399 459 24,400 -2,100 Descending FlightAware
09:51PM -34.4725 149.9998 62° Northeast 381 438 23,400 -2,280 Descending Aus ATC (RADAR)
09:51PM -34.4720 150.0000 62° Northeast 390 449 22,900 -2,160 Descending FlightAware
09:52PM -34.4514 150.0474 62° Northeast 376 433 22,500 -2,160 Descending Aus ATC (RADAR)
09:52PM -34.4340 150.0870 62° Northeast 378 435 21,300 -2,280 Descending FlightAware
09:53PM -34.4010 150.1610 62° Northeast 362 417 20,200 -2,220 Descending FlightAware
09:54PM -34.3660 150.2400 62° Northeast 366 421 18,200 -2,340 Descending FlightAware
09:54PM -34.3340 150.3110 61° Northeast 357 411 16,900 -1,980 Descending FlightAware
09:55PM -34.3000 150.3870 62° Northeast 350 403 15,400 -1,800 Descending FlightAware
09:55PM -34.2771 150.4389 62° Northeast 336 387 14,800 -2,100 Descending Aus ATC (RADAR)
09:56PM -34.2680 150.4590 62° Northeast 344 396 14,000 -2,160 Descending FlightAware
09:56PM -34.2450 150.5110 62° Northeast 338 389 13,100 -1,320 Descending FlightAware
09:56PM -34.2285 150.5474 62° Northeast 325 374 12,900 -1,320 Descending Aus ATC (RADAR)
09:57PM -34.2071 150.5953 62° Northeast 315 362 12,100 -2,220 Descending Aus ATC (RADAR)
09:57PM -34.2070 150.5950 62° Northeast 318 366 11,700 -1,680 Descending FlightAware
09:57PM -34.1894 150.6344 62° Northeast 310 357 11,400 -1,500 Descending Aus ATC (RADAR)
09:58PM -34.1790 150.6570 62° Northeast 307 353 10,700 -900 Descending FlightAware
09:58PM -34.1660 150.6867 62° Northeast 296 341 10,900 -900 Climbing Aus ATC (RADAR)
09:58PM -34.1540 150.7140 62° Northeast 284 327 10,100 -1,740 Descending FlightAware
09:59PM -34.1350 150.7560 61° Northeast 276 318 9,400 -1,200 Descending FlightAware
09:59PM -34.1160 150.7980 61° Northeast 277 319 8,900 -1,200 Descending FlightAware
10:00PM -34.1070 150.8170 60° Northeast 275 316 8,500 -1,200 Descending FlightAware
10:00PM -34.0850 150.8460 48° Northeast 272 313 8,100 -900 Descending FlightAware
10:00PM -34.0700 150.8620 41° Northeast 272 313 7,900 -240 Descending FlightAware
10:01PM -34.0518 150.8829 41° Northeast 272 313 8,000 -840 Climbing Aus ATC (RADAR)
10:01PM -34.0440 150.8910 41° Northeast 271 312 7,500 -1,440 Descending FlightAware
10:01PM -34.0230 150.9160 45° Northeast 268 308 7,100 -900 Descending FlightAware
10:02PM -33.9920 150.9500 42° Northeast 269 310 6,700 -780 Descending FlightAware
10:02PM -33.9710 150.9670 34° Northeast 266 306 6,400 -780 Descending FlightAware
10:03PM -33.9330 150.9650 357° North 266 306 6,000 -900 Descending FlightAware
10:03PM -33.8960 150.9600 354° North 265 305 5,500 -1,320 Descending FlightAware
10:04PM -33.8620 150.9550 353° North 263 303 4,800 -720 Descending FlightAware
10:04PM -33.8133 150.9472 353° North 264 304 4,800 -720 Level Aus ATC (RADAR)
10:05PM -33.7820 150.9650 353° North 262 302 4,000 -1,380 Descending FlightAware
10:05PM -33.7730 150.9840 60° Northeast 258 297 3,700 -1,020 Descending FlightAware
10:05PM -33.7650 151.0020 62° Northeast 258 297 3,500  Descending FlightAware
10:05PM -33.7536 151.0286 62° Northeast 247 284 3,700 -720 Climbing Aus ATC (RADAR)
10:06PM -33.7510 151.0340 62° Northeast 245 282 3,200 -660 Descending FlightAware
10:06PM -33.7401 151.0650 62° Northeast 234 269 3,400 -600 Climbing Aus ATC (RADAR)
10:06PM -33.7410 151.0710 62° Northeast 232 267 2,900 -1,800 Descending FlightAware
10:06PM -33.7460 151.0890 108° East 229 264 2,700 -600 Descending FlightAware
10:07PM -33.7580 151.1030 136° Southeast 217 250 2,600 -600 Descending FlightAware
10:07PM -33.7770 151.1220 140° Southeast 203 234 2,300  Descending FlightAware
10:07PM -33.7912 151.1359 140° Southeast 203 234 2,600 -600 Climbing Aus ATC (RADAR)
10:08PM -33.8000 151.1390 140° Southeast 186 214 2,000 -1,740 Descending FlightAware
10:08PM -33.8130 151.1420 169° South 179 206 1,800 -780 Descending FlightAware
10:08PM -33.8340 151.1470 169° South 181 208 1,500 -780 Descending FlightAware
10:09PM -33.8560 151.1520 169° South 167 192 1,100 -420 Descending FlightAware
10:09PM -33.8719 151.1568 169° South 163 188 1,200 -1,020 Climbing Aus ATC (RADAR)
10:09PM -33.8790 151.1580 169° South 150 173 600 -1,680 Descending FlightAware
10:09PM -33.8890 151.1610 169° South 146 168 400 240 Descending FlightAware
10:10PM -33.8952 151.1626 169° South 146 168 700 -360 Climbing Aus ATC (RADAR)
10:10PM -33.9150 151.1680 167° South 138 159 -720 Descending FlightAware
10:10PM -33.9278 151.1712 167° South 143 165 100 360 Climbing Aus ATC (RADAR)
10:11PM -33.9300 151.1720 167° South 133 153 -720 Descending FlightAware
10:11PM -33.9400 151.1740 171° South 94 108  Level FlightAware
10:11PM -33.9430 151.1760 151° Southeast 52 60  Level FlightAware